createdAt,value
2022-11-01T00:02:08.869Z,4.07
2022-11-01T00:04:36.773Z,3.62
2022-11-01T00:07:04.436Z,3.75
2022-11-01T00:09:32.105Z,4.55
2022-11-01T00:11:59.832Z,5.37
2022-11-01T00:14:27.351Z,3.95
2022-11-01T00:16:54.986Z,2.92
2022-11-01T00:19:22.743Z,3.60
2022-11-01T00:21:50.433Z,5.05
2022-11-01T00:24:17.882Z,6.28
2022-11-01T00:26:45.724Z,4.30
2022-11-01T00:29:13.514Z,4.15
2022-11-01T00:31:41.139Z,4.43
2022-11-01T00:34:09.219Z,6.12
2022-11-01T00:36:36.978Z,6.57
2022-11-01T00:39:05.294Z,5.20
2022-11-01T00:41:33.054Z,4.95
2022-11-01T00:44:00.564Z,4.18
2022-11-01T00:46:28.026Z,5.20
2022-11-01T00:48:55.717Z,4.07
2022-11-01T00:51:23.170Z,2.67
2022-11-01T00:53:50.804Z,2.20
2022-11-01T00:56:18.552Z,5.30
2022-11-01T00:58:46.006Z,4.50
2022-11-01T01:01:13.694Z,4.05
2022-11-01T01:03:41.452Z,4.50
2022-11-01T01:06:08.857Z,4.72
2022-11-01T01:08:36.328Z,3.85
2022-11-01T01:11:04.069Z,6.18
2022-11-01T01:13:31.494Z,4.78
2022-11-01T01:15:58.964Z,5.25
2022-11-01T01:18:27.344Z,3.83
2022-11-01T01:21:01.984Z,3.17
2022-11-01T01:23:29.732Z,3.87
2022-11-01T01:25:57.161Z,4.03
2022-11-01T01:28:24.612Z,5.05
2022-11-01T01:30:52.279Z,5.30
2022-11-01T01:33:19.761Z,5.28
2022-11-01T01:35:47.410Z,6.28
2022-11-01T01:38:15.115Z,3.08
2022-11-01T01:40:42.543Z,4.43
2022-11-01T01:43:12.171Z,4.20
2022-11-01T01:45:41.151Z,4.18
2022-11-01T01:48:13.269Z,4.40
2022-11-01T01:51:02.610Z,3.67
2022-11-01T01:53:36.312Z,3.60
2022-11-01T01:56:07.214Z,2.28
2022-11-01T01:58:38.222Z,4.18
2022-11-01T02:01:06.341Z,3.50
2022-11-01T02:03:35.171Z,3.22
2022-11-01T02:06:09.117Z,6.53
2022-11-01T02:08:39.240Z,3.45
2022-11-01T02:11:07.846Z,4.28
2022-11-01T02:13:35.399Z,4.68
2022-11-01T02:16:38.992Z,4.05
2022-11-01T02:19:31.959Z,5.50
2022-11-01T02:22:08.636Z,3.08
2022-11-01T02:25:01.956Z,4.43
2022-11-01T02:27:32.096Z,5.00
2022-11-01T02:30:18.674Z,4.65
2022-11-01T02:33:19.095Z,5.07
2022-11-01T02:35:59.059Z,4.85
2022-11-01T02:38:34.840Z,4.72
2022-11-01T02:41:10.065Z,4.35
2022-11-01T02:43:47.197Z,3.42
2022-11-01T02:46:35.222Z,6.32
2022-11-01T02:49:03.090Z,5.25
2022-11-01T02:51:32.204Z,6.25
2022-11-01T02:54:21.703Z,3.75
2022-11-01T02:56:50.838Z,6.03
2022-11-01T02:59:23.737Z,3.90
2022-11-01T03:02:01.870Z,4.50
2022-11-01T03:04:29.737Z,7.10
2022-11-01T03:06:59.695Z,6.20
2022-11-01T03:09:27.696Z,5.97
2022-11-01T03:12:00.800Z,5.78
2022-11-01T03:14:52.642Z,3.62
2022-11-01T03:17:32.631Z,3.75
2022-11-01T03:20:09.450Z,6.80
2022-11-01T03:22:44.163Z,4.05
2022-11-01T03:25:35.592Z,3.45
2022-11-01T03:28:09.479Z,5.72
2022-11-01T03:30:37.362Z,4.75
2022-11-01T03:33:05.132Z,3.80
2022-11-01T03:35:35.916Z,4.97
2022-11-01T03:38:12.847Z,5.45
2022-11-01T03:40:43.158Z,4.03
2022-11-01T03:43:12.429Z,4.12
2022-11-01T03:45:40.439Z,7.35
2022-11-01T03:48:08.063Z,6.12
2022-11-01T03:50:35.967Z,5.47
2022-11-01T03:53:03.459Z,7.05
2022-11-01T03:55:30.838Z,4.15
2022-11-01T03:58:00.144Z,6.37
2022-11-01T04:00:33.030Z,21.17
2022-11-01T04:03:01.433Z,7.35
2022-11-01T04:05:30.491Z,6.20
2022-11-01T04:07:57.987Z,7.95
2022-11-01T04:10:26.612Z,8.23
2022-11-01T04:12:54.034Z,6.00
2022-11-01T04:15:41.123Z,6.32
2022-11-01T04:18:42.917Z,7.20
2022-11-01T04:21:21.633Z,9.95
2022-11-01T04:23:49.633Z,6.62
2022-11-01T04:26:20.218Z,5.87
2022-11-01T04:28:59.849Z,9.35
2022-11-01T04:31:27.514Z,6.55
2022-11-01T04:33:55.974Z,5.82
2022-11-01T04:36:23.605Z,4.07
2022-11-01T04:38:52.847Z,5.07
2022-11-01T04:41:20.259Z,7.85
2022-11-01T04:43:47.701Z,7.12
2022-11-01T04:46:16.077Z,8.98
2022-11-01T04:48:43.463Z,6.55
2022-11-01T04:51:11.111Z,7.57
2022-11-01T04:53:39.012Z,3.87
2022-11-01T04:56:09.013Z,4.53
2022-11-01T04:58:41.432Z,7.10
2022-11-01T05:01:12.907Z,9.68
2022-11-01T05:03:40.603Z,6.53
2022-11-01T05:06:08.068Z,7.12
2022-11-01T05:08:35.787Z,5.93
2022-11-01T05:11:03.257Z,6.07
2022-11-01T05:13:30.832Z,4.72
2022-11-01T05:16:18.523Z,4.40
2022-11-01T05:18:46.053Z,3.37
2022-11-01T05:21:13.718Z,4.53
2022-11-01T05:23:41.166Z,4.57
2022-11-01T05:26:08.683Z,5.60
2022-11-01T05:28:36.393Z,4.03
2022-11-01T05:31:03.890Z,5.60
2022-11-01T05:33:31.340Z,3.67
2022-11-01T05:36:01.162Z,4.68
2022-11-01T05:38:28.593Z,5.68
2022-11-01T05:40:56.047Z,2.75
2022-11-01T05:43:23.785Z,5.53
2022-11-01T05:45:51.374Z,5.90
2022-11-01T05:48:18.827Z,4.22
2022-11-01T05:50:47.128Z,6.32
2022-11-01T05:53:14.748Z,6.32
2022-11-01T05:55:42.259Z,5.47
2022-11-01T05:58:09.983Z,3.85
2022-11-01T06:00:37.436Z,5.45
2022-11-01T06:03:06.236Z,5.22
2022-11-01T06:05:34.470Z,7.00
2022-11-01T06:08:02.281Z,6.70
2022-11-01T06:10:31.155Z,5.70
2022-11-01T06:12:59.104Z,7.45
2022-11-01T06:15:26.717Z,9.77
2022-11-01T06:18:01.431Z,4.30
2022-11-01T06:20:30.322Z,3.75
2022-11-01T06:22:59.000Z,6.25
2022-11-01T06:25:27.575Z,4.05
2022-11-01T06:27:55.084Z,6.82
2022-11-01T06:30:22.813Z,6.15
2022-11-01T06:32:50.247Z,6.85
2022-11-01T06:35:17.612Z,8.10
2022-11-01T06:37:45.388Z,7.20
2022-11-01T06:40:13.121Z,6.40
2022-11-01T06:42:45.514Z,6.35
2022-11-01T06:45:14.546Z,5.72
2022-11-01T06:47:46.440Z,7.68
2022-11-01T06:50:14.221Z,7.65
2022-11-01T06:52:41.612Z,5.68
2022-11-01T06:55:09.158Z,5.72
2022-11-01T06:57:36.899Z,4.12
2022-11-01T07:00:04.883Z,4.03
2022-11-01T07:02:32.499Z,3.40
2022-11-01T07:05:00.371Z,3.85
2022-11-01T07:07:28.013Z,4.03
2022-11-01T07:09:55.421Z,3.10
2022-11-01T07:12:23.073Z,4.93
2022-11-01T07:14:50.467Z,7.43
2022-11-01T07:17:17.882Z,5.60
2022-11-01T07:19:45.606Z,6.32
2022-11-01T07:22:14.297Z,5.15
2022-11-01T07:24:41.700Z,3.85
2022-11-01T07:27:09.428Z,4.80
2022-11-01T07:29:36.846Z,5.68
2022-11-01T07:32:04.570Z,5.60
2022-11-01T07:34:32.366Z,4.75
2022-11-01T07:36:59.780Z,5.10
2022-11-01T07:39:27.240Z,7.60
2022-11-01T07:41:54.949Z,6.00
2022-11-01T07:44:22.357Z,4.57
2022-11-01T07:46:49.763Z,5.87
2022-11-01T07:49:17.404Z,5.68
2022-11-01T07:51:44.813Z,5.12
2022-11-01T07:54:12.278Z,4.30
2022-11-01T07:56:39.976Z,3.58
2022-11-01T07:59:08.594Z,4.40
2022-11-01T08:01:36.247Z,5.20
2022-11-01T08:04:04.154Z,5.60
2022-11-01T08:06:31.573Z,5.12
2022-11-01T08:08:59.053Z,4.60
2022-11-01T08:11:28.197Z,3.60
2022-11-01T08:14:00.865Z,5.85
2022-11-01T08:16:32.143Z,7.53
2022-11-01T08:18:59.631Z,5.60
2022-11-01T08:21:27.328Z,4.25
2022-11-01T08:23:55.014Z,3.70
2022-11-01T08:26:22.452Z,5.47
2022-11-01T08:28:50.918Z,5.53
2022-11-01T08:31:18.623Z,5.22
2022-11-01T08:33:46.391Z,5.20
2022-11-01T08:36:14.739Z,5.53
2022-11-01T08:38:44.352Z,3.67
2022-11-01T08:41:11.786Z,4.65
2022-11-01T08:43:40.716Z,5.97
2022-11-01T08:46:10.697Z,3.95
2022-11-01T08:48:38.179Z,4.40
2022-11-01T08:51:05.824Z,6.18
2022-11-01T08:53:34.462Z,6.78
2022-11-01T08:56:02.287Z,5.12
2022-11-01T08:58:29.820Z,6.05
2022-11-01T09:00:57.698Z,6.03
2022-11-01T09:03:25.225Z,7.18
2022-11-01T09:05:52.705Z,7.78
2022-11-01T09:08:20.400Z,6.68
2022-11-01T09:10:47.862Z,6.15
2022-11-01T09:13:15.329Z,6.43
2022-11-01T09:15:43.029Z,4.18
2022-11-01T09:18:10.753Z,4.93
2022-11-01T09:20:38.250Z,4.35
2022-11-01T09:23:06.235Z,6.25
2022-11-01T09:25:33.913Z,7.82
2022-11-01T09:28:01.347Z,5.15
2022-11-01T09:30:30.267Z,5.43
2022-11-01T09:32:57.669Z,4.70
2022-11-01T09:35:25.168Z,7.12
2022-11-01T09:38:00.818Z,6.32
2022-11-01T09:43:01.583Z,5.55
2022-11-01T09:45:31.910Z,8.32
2022-11-01T09:48:02.119Z,7.95
2022-11-01T09:50:37.781Z,6.82
2022-11-01T09:53:09.356Z,7.78
2022-11-01T09:56:10.144Z,7.62
2022-11-01T09:59:01.673Z,5.97
2022-11-01T10:02:05.819Z,6.90
2022-11-01T10:04:48.788Z,6.35
2022-11-01T10:07:41.190Z,5.15
2022-11-01T10:10:40.446Z,6.62
2022-11-01T10:13:26.689Z,5.05
2022-11-01T10:16:05.432Z,7.40
2022-11-01T10:18:41.079Z,4.80
2022-11-01T10:21:13.666Z,5.65
2022-11-01T10:23:50.711Z,7.62
2022-11-01T10:26:23.461Z,4.40
2022-11-01T10:28:50.775Z,6.68
2022-11-01T10:31:22.547Z,5.53
2022-11-01T10:34:05.300Z,6.05
2022-11-01T10:36:34.763Z,5.12
2022-11-01T10:42:09.794Z,5.40
2022-11-01T10:44:57.417Z,7.62
2022-11-01T10:47:25.681Z,6.00
2022-11-01T10:50:05.931Z,5.32
2022-11-01T10:52:55.917Z,7.85
2022-11-01T10:55:38.599Z,6.45
2022-11-01T10:58:13.594Z,4.60
2022-11-01T11:00:42.491Z,4.62
2022-11-01T11:03:25.154Z,4.00
2022-11-01T11:05:54.078Z,6.32
2022-11-01T11:08:23.418Z,7.00
2022-11-01T11:10:51.381Z,7.95
2022-11-01T11:13:23.876Z,5.15
2022-11-01T11:16:16.408Z,6.50
2022-11-01T11:19:01.261Z,6.55
2022-11-01T11:21:34.126Z,7.82
2022-11-01T11:24:02.846Z,7.40
2022-11-01T11:26:39.166Z,7.78
2022-11-01T11:29:06.914Z,7.03
2022-11-01T11:31:35.058Z,7.18
2022-11-01T11:34:20.675Z,6.20
2022-11-01T11:39:37.111Z,6.62
2022-11-01T11:42:24.695Z,7.62
2022-11-01T11:44:57.062Z,8.02
2022-11-01T11:47:26.874Z,8.77
2022-11-01T11:49:56.649Z,11.00
2022-11-01T11:52:28.777Z,7.00
2022-11-01T11:54:56.886Z,6.95
2022-11-01T11:57:26.931Z,7.47
2022-11-01T11:59:57.174Z,11.43
2022-11-01T12:02:27.961Z,6.90
2022-11-01T12:04:58.771Z,6.45
2022-11-01T12:07:28.295Z,7.25
2022-11-01T12:09:58.010Z,9.80
2022-11-01T12:12:31.196Z,5.93
2022-11-01T12:15:00.254Z,9.80
2022-11-01T12:17:34.695Z,7.55
2022-11-01T12:20:16.935Z,5.37
2022-11-01T12:23:10.222Z,6.68
2022-11-01T12:25:40.157Z,7.15
2022-11-01T12:28:20.752Z,5.78
2022-11-01T12:30:49.722Z,6.70
2022-11-01T12:33:25.370Z,7.45
2022-11-01T12:35:56.939Z,7.62
2022-11-01T12:38:35.832Z,5.78
2022-11-01T12:41:29.843Z,7.20
2022-11-01T12:44:16.055Z,7.90
2022-11-01T12:46:51.757Z,8.88
2022-11-01T12:52:31.345Z,6.70
2022-11-01T12:55:06.348Z,7.28
2022-11-01T13:00:03.272Z,10.52
2022-11-01T13:02:43.436Z,6.22
2022-11-01T13:05:29.227Z,6.53
2022-11-01T13:08:09.715Z,7.40
2022-11-01T13:13:23.895Z,7.50
2022-11-01T13:16:14.386Z,9.05
2022-11-01T13:18:55.651Z,9.75
2022-11-01T13:22:01.521Z,6.30
2022-11-01T13:24:34.491Z,9.43
2022-11-01T13:27:25.480Z,5.97
2022-11-01T13:30:05.893Z,7.15
2022-11-01T13:32:37.791Z,6.90
2022-11-01T13:35:24.033Z,7.47
2022-11-01T13:38:27.590Z,10.00
2022-11-01T13:41:01.115Z,10.43
2022-11-01T13:43:36.927Z,9.93
2022-11-01T13:46:13.536Z,9.90
2022-11-01T13:48:59.870Z,7.22
2022-11-01T13:52:01.559Z,7.47
2022-11-01T13:54:51.236Z,6.93
2022-11-01T13:57:21.106Z,7.95
2022-11-01T13:59:57.391Z,5.25
2022-11-01T14:02:28.059Z,7.18
2022-11-01T14:04:59.027Z,6.82
2022-11-01T14:07:32.373Z,7.53
2022-11-01T14:10:00.111Z,8.50
2022-11-01T14:12:30.727Z,7.82
2022-11-01T14:15:32.807Z,7.28
2022-11-01T14:18:05.165Z,6.80
2022-11-01T14:20:40.522Z,7.60
2022-11-01T14:23:29.906Z,8.70
2022-11-01T14:26:22.898Z,7.18
2022-11-01T14:28:56.900Z,7.68
2022-11-01T14:31:26.835Z,8.38
2022-11-01T14:33:59.866Z,7.25
2022-11-01T14:36:29.667Z,7.95
2022-11-01T14:39:07.032Z,6.95
2022-11-01T14:41:36.584Z,6.50
2022-11-01T14:44:11.790Z,8.05
2022-11-01T14:46:46.224Z,6.40
2022-11-01T14:49:42.775Z,5.30
2022-11-01T14:52:24.659Z,6.93
2022-11-01T14:54:56.526Z,7.15
2022-11-01T14:57:30.558Z,8.23
2022-11-01T14:59:58.872Z,7.27
2022-11-01T15:02:27.957Z,9.52
2022-11-01T15:05:00.023Z,7.40
2022-11-01T15:07:31.246Z,8.73
2022-11-01T15:10:06.737Z,8.90
2022-11-01T15:12:38.171Z,8.02
2022-11-01T15:15:06.454Z,7.80
2022-11-01T15:17:34.642Z,10.45
2022-11-01T15:20:13.321Z,11.25
2022-11-01T15:22:42.795Z,11.30
2022-11-01T15:25:20.675Z,11.15
2022-11-01T15:27:48.600Z,7.70
2022-11-01T15:30:23.732Z,7.45
2022-11-01T15:35:25.727Z,7.15
2022-11-01T15:37:54.595Z,6.97
2022-11-01T15:40:29.585Z,8.70
2022-11-01T15:43:02.119Z,6.32
2022-11-01T15:45:31.116Z,9.98
2022-11-01T15:48:07.353Z,8.18
2022-11-01T15:50:37.651Z,8.02
2022-11-01T15:53:10.054Z,8.13
2022-11-01T15:55:41.886Z,9.48
2022-11-01T15:58:17.569Z,8.55
2022-11-01T16:00:51.736Z,8.35
2022-11-01T16:03:35.932Z,5.90
2022-11-01T16:06:13.992Z,11.30
2022-11-01T16:08:50.348Z,8.82
2022-11-01T16:11:22.718Z,9.75
2022-11-01T16:14:00.497Z,10.20
2022-11-01T16:16:29.143Z,11.80
2022-11-01T16:18:57.047Z,11.63
2022-11-01T16:21:30.701Z,14.50
2022-11-01T16:24:15.656Z,9.48
2022-11-01T16:26:56.269Z,8.70
2022-11-01T16:29:40.599Z,11.02
2022-11-01T16:32:29.998Z,11.60
2022-11-01T16:35:00.242Z,9.02
2022-11-01T16:37:32.793Z,8.70
2022-11-01T16:40:24.517Z,10.13
2022-11-01T16:42:52.229Z,9.60
2022-11-01T16:45:20.119Z,12.27
2022-11-01T16:47:47.592Z,11.45
2022-11-01T16:50:21.296Z,12.05
2022-11-01T16:52:49.109Z,10.60
2022-11-01T16:55:16.672Z,14.13
2022-11-01T16:57:47.232Z,10.32
2022-11-01T17:00:15.343Z,8.88
2022-11-01T17:02:44.110Z,8.70
2022-11-01T17:05:15.570Z,10.40
2022-11-01T17:07:43.549Z,9.75
2022-11-01T17:10:20.976Z,7.32
2022-11-01T17:12:49.057Z,6.85
2022-11-01T17:15:17.368Z,10.65
2022-11-01T17:17:46.961Z,9.00
2022-11-01T17:20:20.105Z,7.60
2022-11-01T17:22:50.921Z,7.60
2022-11-01T17:25:20.320Z,9.27
2022-11-01T17:27:51.132Z,8.57
2022-11-01T17:30:19.888Z,9.45
2022-11-01T17:32:47.506Z,7.80
2022-11-01T17:35:15.794Z,6.65
2022-11-01T17:37:43.810Z,9.70
2022-11-01T17:40:22.783Z,12.07
2022-11-01T17:42:50.976Z,7.05
2022-11-01T17:45:18.495Z,8.57
2022-11-01T17:47:47.164Z,7.20
2022-11-01T17:50:16.313Z,7.95
2022-11-01T17:52:44.181Z,6.65
2022-11-01T17:55:12.136Z,9.80
2022-11-01T17:57:41.062Z,10.38
2022-11-01T18:00:09.905Z,9.32
2022-11-01T18:02:40.139Z,12.40
2022-11-01T18:05:09.447Z,9.50
2022-11-01T18:07:41.988Z,7.65
2022-11-01T18:10:27.544Z,8.30
2022-11-01T18:13:30.137Z,10.63
2022-11-01T18:16:04.735Z,9.80
2022-11-01T18:18:44.708Z,11.23
2022-11-01T18:21:48.924Z,7.18
2022-11-01T18:24:22.618Z,7.95
2022-11-01T18:26:51.454Z,12.35
2022-11-01T18:29:24.014Z,11.30
2022-11-01T18:32:02.439Z,11.70
2022-11-01T18:34:37.326Z,19.00
2022-11-01T18:37:45.022Z,7.68
2022-11-01T18:40:27.449Z,7.32
2022-11-01T18:42:55.291Z,9.65
2022-11-01T18:45:30.994Z,7.57
2022-11-01T18:48:13.343Z,9.93
2022-11-01T18:50:41.085Z,8.05
2022-11-01T18:53:08.973Z,9.60
2022-11-01T18:55:37.267Z,8.75
2022-11-01T18:58:22.352Z,9.88
2022-11-01T19:01:12.098Z,6.50
2022-11-01T19:03:40.366Z,8.10
2022-11-01T19:06:20.053Z,6.50
2022-11-01T19:08:58.911Z,8.68
2022-11-01T19:11:28.368Z,10.10
2022-11-01T19:14:02.280Z,9.57
2022-11-01T19:16:30.315Z,8.48
2022-11-01T19:18:57.951Z,10.63
2022-11-01T19:21:25.933Z,9.73
2022-11-01T19:23:54.339Z,9.00
2022-11-01T19:26:27.874Z,10.10
2022-11-01T19:28:55.707Z,10.38
2022-11-01T19:31:32.186Z,6.25
2022-11-01T19:34:03.599Z,9.23
2022-11-01T19:36:40.625Z,7.10
2022-11-01T19:39:19.278Z,7.20
2022-11-01T19:41:46.908Z,6.47
2022-11-01T19:44:19.287Z,9.20
2022-11-01T19:46:46.979Z,5.87
2022-11-01T19:49:23.729Z,8.02
2022-11-01T19:52:23.117Z,8.48
2022-11-01T19:54:52.193Z,6.65
2022-11-01T19:57:37.462Z,8.77
2022-11-01T20:00:21.755Z,7.05
2022-11-01T20:02:52.530Z,6.62
2022-11-01T20:05:23.719Z,8.05
2022-11-01T20:07:51.804Z,7.30
2022-11-01T20:10:19.645Z,7.93
2022-11-01T20:12:47.627Z,7.30
2022-11-01T20:15:15.693Z,6.93
2022-11-01T20:20:16.455Z,6.00
2022-11-01T20:22:54.559Z,7.03
2022-11-01T20:25:30.876Z,7.43
2022-11-01T20:27:58.556Z,7.18
2022-11-01T20:30:26.210Z,8.13
2022-11-01T20:32:54.162Z,5.75
2022-11-01T20:35:21.798Z,6.35
2022-11-01T20:37:49.406Z,5.40
2022-11-01T20:40:17.326Z,5.35
2022-11-01T20:42:45.987Z,4.90
2022-11-01T20:45:14.696Z,8.57
2022-11-01T20:47:46.360Z,4.90
2022-11-01T20:50:15.556Z,6.07
2022-11-01T20:52:43.616Z,6.05
2022-11-01T20:55:12.644Z,5.35
2022-11-01T20:57:40.287Z,4.85
2022-11-01T21:00:18.918Z,5.05
2022-11-01T21:02:47.259Z,6.60
2022-11-01T21:05:22.429Z,4.30
2022-11-01T21:07:53.961Z,5.50
2022-11-01T21:10:43.902Z,2.95
2022-11-01T21:13:35.758Z,4.75
2022-11-01T21:16:08.445Z,3.50
2022-11-01T21:18:42.171Z,5.62
2022-11-01T21:21:15.870Z,5.05
2022-11-01T21:23:44.541Z,3.90
2022-11-01T21:26:18.484Z,5.85
2022-11-01T21:29:14.574Z,5.03
2022-11-01T21:31:42.632Z,3.22
2022-11-01T21:34:10.181Z,3.33
2022-11-01T21:36:41.881Z,4.72
2022-11-01T21:39:19.870Z,4.25
2022-11-01T21:41:51.778Z,5.80
2022-11-01T21:44:45.505Z,3.92
2022-11-01T21:47:23.558Z,5.32
2022-11-01T21:49:51.631Z,2.50
2022-11-01T21:52:19.635Z,4.80
2022-11-01T21:54:48.467Z,6.25
2022-11-01T21:57:16.753Z,6.40
2022-11-01T21:59:44.432Z,5.95
2022-11-01T22:02:13.843Z,6.53
2022-11-01T22:04:42.192Z,5.25
2022-11-01T22:07:10.819Z,5.05
2022-11-01T22:09:38.613Z,5.32
2022-11-01T22:12:06.970Z,4.00
2022-11-01T22:14:34.924Z,5.03
2022-11-01T22:17:02.405Z,5.62
2022-11-01T22:19:30.083Z,6.57
2022-11-01T22:21:57.653Z,5.07
2022-11-01T22:24:25.771Z,5.00
2022-11-01T22:26:53.468Z,5.87
2022-11-01T22:29:20.920Z,3.90
2022-11-01T22:31:48.344Z,5.47
2022-11-01T22:34:17.437Z,5.43
2022-11-01T22:36:44.880Z,5.10
2022-11-01T22:39:18.717Z,4.62
2022-11-01T22:41:47.203Z,5.50
2022-11-01T22:44:17.163Z,5.12
2022-11-01T22:46:47.795Z,5.35
2022-11-01T22:49:36.232Z,5.10
2022-11-01T22:52:06.557Z,4.85
2022-11-01T22:54:47.614Z,5.40
2022-11-01T22:57:18.187Z,4.22
2022-11-01T22:59:56.589Z,5.18
2022-11-01T23:02:26.970Z,5.80
2022-11-01T23:05:06.112Z,3.22
2022-11-01T23:07:37.315Z,3.55
2022-11-01T23:10:28.363Z,4.33
2022-11-01T23:13:20.937Z,4.75
2022-11-01T23:15:48.656Z,4.28
2022-11-01T23:18:21.140Z,3.47
2022-11-01T23:20:57.494Z,4.47
2022-11-01T23:23:26.492Z,3.95
2022-11-01T23:25:55.962Z,3.72
2022-11-01T23:28:24.513Z,3.72
2022-11-01T23:30:52.062Z,5.05
2022-11-01T23:33:21.201Z,2.83
2022-11-01T23:35:57.104Z,3.65
2022-11-01T23:38:37.480Z,4.40
2022-11-01T23:41:05.216Z,3.30
2022-11-01T23:43:37.983Z,4.45
2022-11-01T23:46:11.473Z,3.85
2022-11-01T23:48:43.325Z,4.78
2022-11-01T23:51:20.315Z,4.93
2022-11-01T23:53:51.370Z,4.78
2022-11-01T23:56:20.118Z,4.47
2022-11-01T23:58:53.803Z,3.45
